Time;durP1;ratioP1;P1;durP2;ratioP2;P2;SDS_P1;SDS_P2;PMS_P1;PMS_P2;Temp;Humidity;BMP_temperature;BMP_pressure;BME280_temperature;BME280_humidity;BME280_pressure;Samples;Min_cycle;Max_cycle;Signal;HPM_P1;HPM_P2
2021/10/07 00:00:41;;;;;;;0.00;0.00;;;12.90;99.90;;;;;;5084448;28;20241;-81
2021/10/07 00:03:07;;;;;;;0.20;0.20;;;12.90;99.90;;;;;;5086747;28;20202;-82
2021/10/07 00:05:33;;;;;;;0.10;0.10;;;12.80;99.90;;;;;;5073987;28;20634;-81
2021/10/07 00:07:59;;;;;;;0.20;0.20;;;12.80;99.90;;;;;;5088806;28;20216;-81
2021/10/07 00:10:26;;;;;;;0.10;0.10;;;12.80;99.90;;;;;;5087080;28;20233;-82
2021/10/07 00:12:52;;;;;;;0.10;0.10;;;12.70;99.90;;;;;;5093042;28;20181;-81
2021/10/07 00:15:18;;;;;;;0.10;0.10;;;12.70;99.90;;;;;;5089466;28;20200;-81
2021/10/07 00:17:43;;;;;;;0.30;0.30;;;12.60;99.90;;;;;;5088164;28;20271;-81
2021/10/07 00:20:11;;;;;;;0.20;0.20;;;12.60;99.90;;;;;;5095215;28;20189;-81
2021/10/07 00:22:39;;;;;;;0.10;0.10;;;12.60;99.90;;;;;;5090806;28;20195;-81
2021/10/07 00:25:07;;;;;;;0.10;0.10;;;12.60;99.90;;;;;;5088688;28;20212;-81
2021/10/07 00:27:34;;;;;;;0.10;0.10;;;12.40;99.90;;;;;;5082680;28;20259;-82
2021/10/07 00:30:03;;;;;;;0.33;0.33;;;12.40;99.90;;;;;;5091086;28;20282;-81
2021/10/07 00:32:34;;;;;;;0.30;0.30;;;12.50;99.90;;;;;;5085865;28;20184;-81
2021/10/07 00:35:32;;;;;;;0.10;0.10;;;12.50;99.90;;;;;;5090288;28;20205;-81
2021/10/07 00:40:42;;;;;;;0.23;0.10;;;12.60;99.90;;;;;;5080625;28;20205;-81
2021/10/07 00:43:08;;;;;;;0.30;0.30;;;12.60;99.90;;;;;;5080691;28;20174;-81
2021/10/07 00:45:33;;;;;;;0.10;0.10;;;12.70;99.90;;;;;;5083281;28;20229;-82
2021/10/07 00:47:59;;;;;;;0.10;0.10;;;12.70;99.90;;;;;;5094806;28;20187;-81
2021/10/07 00:50:24;;;;;;;0.50;0.33;;;12.70;99.90;;;;;;5095549;28;20183;-82
2021/10/07 00:52:50;;;;;;;0.07;0.07;;;12.80;99.90;;;;;;5085818;28;20173;-81
2021/10/07 00:55:16;;;;;;;0.20;0.20;;;12.70;99.90;;;;;;5086416;28;20204;-81
2021/10/07 00:57:42;;;;;;;0.20;0.20;;;12.70;99.90;;;;;;5087510;28;20563;-81
2021/10/07 01:00:10;;;;;;;0.23;0.10;;;12.60;99.90;;;;;;5086837;28;20636;-82
2021/10/07 01:02:36;;;;;;;0.07;0.07;;;12.70;99.90;;;;;;5097822;28;20188;-81
2021/10/07 01:05:02;;;;;;;0.20;0.20;;;12.60;99.90;;;;;;5080854;28;20206;-81
2021/10/07 01:07:28;;;;;;;0.10;0.10;;;12.60;99.90;;;;;;5082702;28;20206;-80
2021/10/07 01:09:54;;;;;;;0.10;0.10;;;12.60;99.90;;;;;;5075281;28;20170;-81
2021/10/07 01:12:19;;;;;;;0.10;0.10;;;12.50;99.90;;;;;;5081080;28;20179;-81
2021/10/07 01:14:50;;;;;;;0.10;0.10;;;12.40;99.90;;;;;;5085369;28;20232;-81
2021/10/07 01:17:19;;;;;;;0.10;0.10;;;12.20;99.90;;;;;;5085232;28;20179;-81
2021/10/07 01:19:46;;;;;;;0.20;0.20;;;12.20;99.90;;;;;;5085766;28;20180;-81
2021/10/07 01:22:13;;;;;;;0.30;0.23;;;12.10;99.90;;;;;;5097977;28;20172;-81
2021/10/07 01:24:39;;;;;;;0.53;0.23;;;12.00;99.90;;;;;;5089992;28;20292;-81
2021/10/07 01:27:05;;;;;;;0.10;0.10;;;12.00;99.90;;;;;;5096057;28;20205;-81
2021/10/07 01:29:31;;;;;;;0.20;0.20;;;11.90;99.90;;;;;;5084877;28;20181;-81
2021/10/07 01:31:58;;;;;;;0.13;0.13;;;11.80;99.90;;;;;;5102060;28;20261;-81
2021/10/07 01:34:28;;;;;;;0.10;0.10;;;11.60;99.90;;;;;;5085568;28;20255;-81
2021/10/07 01:36:54;;;;;;;0.20;0.20;;;11.50;99.90;;;;;;5077019;28;20191;-81
2021/10/07 01:39:21;;;;;;;0.60;0.23;;;11.60;99.90;;;;;;5093714;28;20201;-81
2021/10/07 01:41:48;;;;;;;0.20;0.20;;;11.70;99.90;;;;;;5090019;28;20189;-81
2021/10/07 01:44:15;;;;;;;0.10;0.10;;;11.90;99.90;;;;;;5080953;28;20238;-81
2021/10/07 01:46:41;;;;;;;0.20;0.20;;;12.00;99.90;;;;;;5088800;28;20246;-80
2021/10/07 01:49:07;;;;;;;0.20;0.20;;;12.20;99.90;;;;;;5096162;28;20177;-81
2021/10/07 01:51:34;;;;;;;0.50;0.20;;;12.30;99.90;;;;;;5083804;28;20180;-81
2021/10/07 01:54:00;;;;;;;0.10;0.10;;;12.30;99.90;;;;;;5091089;28;20562;-81
2021/10/07 01:56:26;;;;;;;0.10;0.10;;;12.40;99.90;;;;;;5087636;28;20192;-81
2021/10/07 01:58:51;;;;;;;0.20;0.10;;;12.30;99.90;;;;;;5092437;28;20216;-81
2021/10/07 02:01:17;;;;;;;0.10;0.10;;;11.80;99.90;;;;;;5093413;28;20718;-81
2021/10/07 02:03:42;;;;;;;0.10;0.10;;;11.70;99.90;;;;;;5086786;28;20199;-81
2021/10/07 02:06:08;;;;;;;0.10;0.10;;;11.70;99.90;;;;;;5093737;28;20240;-80
2021/10/07 02:08:33;;;;;;;0.10;0.10;;;11.90;99.90;;;;;;5087535;28;20183;-81
2021/10/07 02:10:59;;;;;;;0.10;0.10;;;11.90;99.90;;;;;;5088145;28;20215;-81
2021/10/07 02:13:25;;;;;;;0.20;0.20;;;11.90;99.90;;;;;;5072387;28;20204;-81
2021/10/07 02:15:51;;;;;;;0.07;0.07;;;12.00;99.90;;;;;;5099140;28;20213;-80
2021/10/07 02:18:16;;;;;;;0.10;0.10;;;12.10;99.90;;;;;;5092391;28;20181;-82
2021/10/07 02:20:42;;;;;;;0.10;0.10;;;12.20;99.90;;;;;;5096068;28;20534;-82
2021/10/07 02:23:07;;;;;;;0.10;0.10;;;12.20;99.90;;;;;;5088634;28;20188;-81
2021/10/07 02:25:33;;;;;;;0.37;0.37;;;12.30;99.90;;;;;;5093383;28;20216;-82
2021/10/07 02:27:59;;;;;;;0.10;0.10;;;12.30;99.90;;;;;;5088741;28;20244;-81
2021/10/07 02:30:25;;;;;;;0.10;0.10;;;12.40;99.90;;;;;;5081559;28;20180;-81
2021/10/07 02:32:50;;;;;;;0.10;0.10;;;12.30;99.90;;;;;;5091659;28;20308;-81
2021/10/07 02:35:16;;;;;;;0.37;0.37;;;12.40;99.90;;;;;;5090287;28;20279;-81
2021/10/07 02:37:44;;;;;;;0.30;0.30;;;12.40;99.90;;;;;;5084398;28;20203;-81
2021/10/07 02:40:11;;;;;;;0.10;0.10;;;12.40;99.90;;;;;;5096804;28;20659;-81
2021/10/07 02:42:37;;;;;;;0.10;0.10;;;12.10;99.90;;;;;;5085152;28;20202;-81
2021/10/07 02:45:08;;;;;;;0.63;0.63;;;11.70;99.90;;;;;;5079672;28;20290;-81
2021/10/07 02:47:34;;;;;;;0.10;0.10;;;11.50;99.90;;;;;;5088803;28;20180;-81
2021/10/07 02:49:59;;;;;;;0.10;0.10;;;11.60;99.90;;;;;;5089609;28;20188;-81
2021/10/07 02:52:25;;;;;;;0.00;0.00;;;11.80;99.90;;;;;;5087979;28;20244;-81
2021/10/07 02:54:51;;;;;;;0.30;0.30;;;12.00;99.90;;;;;;5092705;28;20215;-81
2021/10/07 02:57:16;;;;;;;0.10;0.10;;;12.10;99.90;;;;;;5091444;28;20182;-81
2021/10/07 02:59:43;;;;;;;0.20;0.20;;;12.00;99.90;;;;;;5099046;28;20180;-81
2021/10/07 03:02:08;;;;;;;0.10;0.10;;;11.90;99.90;;;;;;5085184;28;20176;-81
2021/10/07 03:04:35;;;;;;;0.20;0.20;;;11.80;99.90;;;;;;5090844;28;20214;-81
2021/10/07 03:07:00;;;;;;;0.23;0.23;;;11.90;99.90;;;;;;5083362;28;20209;-81
2021/10/07 03:09:26;;;;;;;0.10;0.10;;;12.10;99.90;;;;;;5089646;28;20188;-81
2021/10/07 03:11:51;;;;;;;0.30;0.30;;;12.20;99.90;;;;;;5081349;28;20184;-81
2021/10/07 03:14:17;;;;;;;0.30;0.30;;;11.90;99.90;;;;;;5072211;28;20203;-81
2021/10/07 03:16:43;;;;;;;0.87;0.77;;;11.90;99.90;;;;;;5087291;28;20268;-81
2021/10/07 03:19:09;;;;;;;0.10;0.10;;;12.10;99.90;;;;;;5095231;28;20199;-81
2021/10/07 03:21:38;;;;;;;0.10;0.10;;;12.10;99.90;;;;;;5083859;28;20211;-81
2021/10/07 03:24:04;;;;;;;0.07;0.07;;;12.20;99.90;;;;;;5087775;28;20217;-81
2021/10/07 03:26:30;;;;;;;0.50;0.50;;;12.20;99.90;;;;;;5080157;28;20307;-81
2021/10/07 03:28:56;;;;;;;0.17;0.17;;;11.80;99.90;;;;;;5093721;28;20203;-81
2021/10/07 03:31:21;;;;;;;0.20;0.20;;;11.70;99.90;;;;;;5083439;28;20187;-81
2021/10/07 03:33:47;;;;;;;0.13;0.13;;;11.80;99.90;;;;;;5089701;28;20188;-81
2021/10/07 03:36:13;;;;;;;0.10;0.10;;;11.90;99.90;;;;;;5080176;28;20709;-81
2021/10/07 03:38:38;;;;;;;0.77;0.50;;;11.70;99.90;;;;;;5092469;28;20202;-81
2021/10/07 03:41:04;;;;;;;0.30;0.30;;;11.70;99.90;;;;;;5080635;28;20195;-81
2021/10/07 03:43:29;;;;;;;0.10;0.10;;;11.60;99.90;;;;;;5064870;28;20234;-81
2021/10/07 03:45:55;;;;;;;0.30;0.30;;;11.60;99.90;;;;;;5079239;28;20257;-80
2021/10/07 03:48:21;;;;;;;0.20;0.20;;;11.40;99.90;;;;;;5089491;28;20197;-81
2021/10/07 03:50:46;;;;;;;0.27;0.27;;;11.40;99.90;;;;;;5093061;28;20180;-82
2021/10/07 03:53:12;;;;;;;1.10;0.30;;;11.50;99.90;;;;;;5086457;28;20273;-81
2021/10/07 03:55:37;;;;;;;1.40;0.30;;;11.50;99.90;;;;;;5093750;28;20214;-81
2021/10/07 03:58:03;;;;;;;0.20;0.20;;;11.50;99.90;;;;;;5094193;28;20236;-82
2021/10/07 04:00:29;;;;;;;0.10;0.10;;;11.40;99.90;;;;;;5100522;28;20189;-81
2021/10/07 04:02:57;;;;;;;0.30;0.13;;;11.50;99.90;;;;;;5100631;28;20185;-81
2021/10/07 04:05:23;;;;;;;0.17;0.17;;;11.60;99.90;;;;;;5093904;28;20208;-81
2021/10/07 04:07:49;;;;;;;0.97;0.97;;;11.70;99.90;;;;;;5091728;28;20662;-81
2021/10/07 04:10:15;;;;;;;0.20;0.20;;;11.60;99.90;;;;;;5100888;28;20195;-81
2021/10/07 04:12:41;;;;;;;0.10;0.10;;;11.60;99.90;;;;;;5101442;28;20551;-81
2021/10/07 04:15:07;;;;;;;0.10;0.10;;;11.60;99.90;;;;;;5081183;28;20237;-81
2021/10/07 04:17:33;;;;;;;0.20;0.20;;;11.50;99.90;;;;;;5089134;28;20571;-80
2021/10/07 04:19:58;;;;;;;0.23;0.23;;;11.60;99.90;;;;;;5091371;28;20192;-81
2021/10/07 04:22:24;;;;;;;0.00;0.00;;;11.70;99.90;;;;;;5086115;28;20184;-81
2021/10/07 04:24:49;;;;;;;0.30;0.30;;;11.60;99.90;;;;;;5089817;28;20226;-81
2021/10/07 04:27:15;;;;;;;0.20;0.20;;;11.80;99.90;;;;;;5093047;28;20192;-82
2021/10/07 04:29:44;;;;;;;0.10;0.10;;;12.00;99.90;;;;;;5084856;28;20174;-81
2021/10/07 04:32:10;;;;;;;0.20;0.20;;;12.10;99.90;;;;;;5085747;28;20215;-82
2021/10/07 04:34:35;;;;;;;0.20;0.20;;;11.90;99.90;;;;;;5090061;28;20276;-81
2021/10/07 04:37:01;;;;;;;1.70;0.23;;;12.00;99.90;;;;;;5096836;28;20648;-81
2021/10/07 04:39:26;;;;;;;0.90;0.20;;;12.10;99.90;;;;;;5082895;28;20187;-81
2021/10/07 04:41:52;;;;;;;0.80;0.80;;;12.00;99.90;;;;;;5091315;28;20186;-81
2021/10/07 04:44:17;;;;;;;1.10;0.43;;;12.00;99.90;;;;;;5089323;28;20610;-81
2021/10/07 04:46:43;;;;;;;0.47;0.47;;;12.20;99.90;;;;;;5094112;28;20198;-82
2021/10/07 04:49:09;;;;;;;0.27;0.27;;;12.20;99.90;;;;;;5091429;28;20189;-81
2021/10/07 04:51:34;;;;;;;0.73;0.20;;;12.30;99.90;;;;;;5090097;28;20174;-81
2021/10/07 04:54:00;;;;;;;1.57;0.50;;;12.30;99.90;;;;;;5085253;28;20242;-81
2021/10/07 04:56:25;;;;;;;0.23;0.23;;;12.20;99.90;;;;;;5105962;28;20182;-80
2021/10/07 04:58:54;;;;;;;0.43;0.27;;;12.30;99.90;;;;;;5085826;28;20194;-80
2021/10/07 05:01:20;;;;;;;0.40;0.37;;;12.30;99.90;;;;;;5080835;28;20184;-80
2021/10/07 05:03:45;;;;;;;1.37;0.20;;;12.30;99.90;;;;;;5092517;28;20176;-80
2021/10/07 05:06:11;;;;;;;0.27;0.27;;;12.40;99.90;;;;;;5075835;28;20695;-80
2021/10/07 05:08:37;;;;;;;0.20;0.20;;;12.30;99.90;;;;;;5094553;28;20256;-79
2021/10/07 05:11:02;;;;;;;0.30;0.30;;;12.40;99.90;;;;;;5095037;28;20535;-80
2021/10/07 05:13:28;;;;;;;0.10;0.10;;;12.40;99.90;;;;;;5080829;28;20539;-80
2021/10/07 05:15:53;;;;;;;0.20;0.20;;;12.50;99.90;;;;;;5080713;28;20564;-80
2021/10/07 05:18:19;;;;;;;0.10;0.10;;;12.60;99.90;;;;;;5090768;28;20202;-80
2021/10/07 05:20:45;;;;;;;0.20;0.20;;;12.70;99.90;;;;;;5086269;28;20209;-81
2021/10/07 05:23:12;;;;;;;0.27;0.23;;;12.70;99.90;;;;;;5086096;28;20554;-83
2021/10/07 05:25:38;;;;;;;0.10;0.10;;;12.80;99.90;;;;;;5090058;28;20260;-82
2021/10/07 05:28:03;;;;;;;0.30;0.30;;;12.80;99.90;;;;;;5080762;28;20549;-81
2021/10/07 05:30:29;;;;;;;0.27;0.27;;;12.80;99.90;;;;;;5089784;28;21256;-83
2021/10/07 05:32:55;;;;;;;0.40;0.33;;;12.80;99.90;;;;;;5074535;28;20187;-82
2021/10/07 05:35:20;;;;;;;0.30;0.30;;;12.70;99.90;;;;;;5091225;28;20208;-82
2021/10/07 05:37:46;;;;;;;0.97;0.23;;;12.50;99.90;;;;;;5093467;28;20249;-82
2021/10/07 05:40:12;;;;;;;0.30;0.30;;;12.20;99.90;;;;;;5088201;28;20244;-82
2021/10/07 05:42:38;;;;;;;0.30;0.20;;;12.30;99.90;;;;;;5085704;28;20176;-81
2021/10/07 05:45:04;;;;;;;0.20;0.20;;;12.40;99.90;;;;;;5094200;28;20699;-81
2021/10/07 05:47:29;;;;;;;0.30;0.30;;;12.40;99.90;;;;;;5091258;28;20517;-81
2021/10/07 05:49:55;;;;;;;0.10;0.10;;;12.50;99.90;;;;;;5087052;28;20180;-81
2021/10/07 05:52:20;;;;;;;0.23;0.23;;;12.50;99.90;;;;;;5085847;28;20176;-81
2021/10/07 05:54:46;;;;;;;0.20;0.20;;;12.60;99.90;;;;;;5089299;28;20213;-81
2021/10/07 05:57:12;;;;;;;0.30;0.30;;;12.70;99.90;;;;;;5107211;28;20218;-81
2021/10/07 05:59:37;;;;;;;0.20;0.20;;;12.70;99.90;;;;;;5087405;28;20185;-81
2021/10/07 06:02:03;;;;;;;1.27;1.00;;;12.80;99.90;;;;;;5087523;28;20184;-80
2021/10/07 06:04:28;;;;;;;0.40;0.40;;;12.90;99.90;;;;;;5084606;28;20341;-81
2021/10/07 06:06:54;;;;;;;0.10;0.10;;;12.90;99.90;;;;;;5094640;28;20236;-81
2021/10/07 06:09:20;;;;;;;0.20;0.20;;;13.00;99.90;;;;;;5090465;28;20190;-81
2021/10/07 06:11:45;;;;;;;1.23;0.30;;;13.00;99.90;;;;;;5094083;28;20181;-81
2021/10/07 06:14:11;;;;;;;0.10;0.10;;;12.90;99.90;;;;;;5090801;28;20575;-81
2021/10/07 06:16:39;;;;;;;0.30;0.30;;;12.80;99.90;;;;;;5094867;28;20180;-80
2021/10/07 06:19:10;;;;;;;0.57;0.57;;;12.60;99.90;;;;;;5090712;28;20178;-82
2021/10/07 06:21:36;;;;;;;0.87;0.53;;;12.50;99.90;;;;;;5093996;28;20171;-82
2021/10/07 06:24:02;;;;;;;1.60;0.53;;;12.50;99.90;;;;;;5084603;28;20702;-81
2021/10/07 06:26:28;;;;;;;0.20;0.20;;;12.70;99.90;;;;;;5098432;28;20234;-81
2021/10/07 06:28:53;;;;;;;0.13;0.13;;;12.80;99.90;;;;;;5092446;28;20237;-80
2021/10/07 06:31:19;;;;;;;0.10;0.10;;;13.00;99.90;;;;;;5089873;28;20185;-80
2021/10/07 06:33:47;;;;;;;0.43;0.43;;;13.10;99.90;;;;;;5091084;28;20206;-82
2021/10/07 06:36:13;;;;;;;1.60;0.50;;;13.20;99.90;;;;;;5094714;28;20240;-81
2021/10/07 06:38:38;;;;;;;0.40;0.40;;;13.20;99.90;;;;;;5110189;28;20223;-81
2021/10/07 06:41:04;;;;;;;0.23;0.23;;;13.20;99.90;;;;;;5101268;28;20178;-81
2021/10/07 06:43:30;;;;;;;0.80;0.53;;;13.30;99.90;;;;;;5091738;28;20594;-81
2021/10/07 06:45:55;;;;;;;0.30;0.30;;;13.20;99.90;;;;;;5092577;28;20303;-82
2021/10/07 06:48:21;;;;;;;0.40;0.40;;;13.20;99.90;;;;;;5096443;28;20188;-81
2021/10/07 06:50:47;;;;;;;0.40;0.40;;;13.30;99.90;;;;;;5091744;28;20183;-82
2021/10/07 06:53:13;;;;;;;0.20;0.20;;;13.40;99.90;;;;;;5088606;28;20280;-81
2021/10/07 06:55:39;;;;;;;0.80;0.30;;;13.50;99.90;;;;;;5094332;28;20269;-81
2021/10/07 06:58:08;;;;;;;0.70;0.30;;;13.50;99.90;;;;;;5088978;28;20274;-81
2021/10/07 07:00:34;;;;;;;0.60;0.43;;;13.60;99.90;;;;;;5093245;28;20176;-81
2021/10/07 07:03:00;;;;;;;0.50;0.40;;;13.60;99.90;;;;;;5088062;28;20217;-81
2021/10/07 07:05:26;;;;;;;0.20;0.20;;;13.40;99.90;;;;;;5094684;28;20207;-81
2021/10/07 07:07:52;;;;;;;0.27;0.27;;;13.30;99.90;;;;;;5079497;28;20173;-81
2021/10/07 07:10:18;;;;;;;0.20;0.20;;;13.10;99.90;;;;;;5082224;28;20177;-87
2021/10/07 07:12:48;;;;;;;0.20;0.20;;;13.00;99.90;;;;;;5078085;28;20203;-81
2021/10/07 07:15:15;;;;;;;0.37;0.37;;;13.20;99.90;;;;;;5089527;28;20212;-81
2021/10/07 07:17:41;;;;;;;0.77;0.20;;;13.40;99.90;;;;;;5086139;28;20629;-81
2021/10/07 07:20:07;;;;;;;0.30;0.30;;;13.40;99.90;;;;;;5093627;28;20191;-81
2021/10/07 07:22:33;;;;;;;0.20;0.20;;;13.50;99.90;;;;;;5101031;28;20235;-81
2021/10/07 07:24:59;;;;;;;0.10;0.10;;;13.50;99.90;;;;;;5094385;28;20231;-81
2021/10/07 07:27:24;;;;;;;0.10;0.10;;;13.70;99.90;;;;;;5097074;28;20191;-82
2021/10/07 07:29:50;;;;;;;0.10;0.10;;;13.70;99.90;;;;;;5103409;28;20180;-81
2021/10/07 07:32:16;;;;;;;1.27;0.73;;;13.70;99.90;;;;;;5098491;28;20172;-82
2021/10/07 07:34:41;;;;;;;0.30;0.30;;;13.80;99.90;;;;;;5099240;28;20568;-82
2021/10/07 07:37:07;;;;;;;0.83;0.83;;;13.90;99.90;;;;;;5101551;28;20180;-82
2021/10/07 07:39:33;;;;;;;0.20;0.20;;;13.90;99.90;;;;;;5102104;28;20186;-82
2021/10/07 07:41:59;;;;;;;0.50;0.50;;;14.00;99.90;;;;;;5104178;28;20212;-81
2021/10/07 07:44:25;;;;;;;0.13;0.13;;;13.90;99.90;;;;;;5094590;28;20197;-82
2021/10/07 07:46:51;;;;;;;0.47;0.30;;;13.70;99.90;;;;;;5102388;28;20182;-81
2021/10/07 07:49:16;;;;;;;0.30;0.30;;;13.70;99.90;;;;;;5098115;28;20901;-82
2021/10/07 07:51:42;;;;;;;0.20;0.20;;;13.70;99.90;;;;;;5104900;28;20192;-82
2021/10/07 07:54:07;;;;;;;0.30;0.30;;;13.90;99.90;;;;;;5105159;28;20192;-80
2021/10/07 07:56:33;;;;;;;0.33;0.33;;;14.10;99.90;;;;;;5094323;28;20181;-81
2021/10/07 07:58:59;;;;;;;1.13;0.77;;;14.20;99.90;;;;;;5119963;28;20193;-82
2021/10/07 08:01:25;;;;;;;0.83;0.70;;;14.00;99.90;;;;;;5089170;28;20200;-81
2021/10/07 08:03:51;;;;;;;0.50;0.50;;;13.70;99.90;;;;;;5102863;28;20172;-82
2021/10/07 08:06:16;;;;;;;1.70;1.03;;;13.60;99.90;;;;;;5082423;28;20231;-81
2021/10/07 08:08:42;;;;;;;0.27;0.20;;;13.60;99.90;;;;;;5107714;28;20226;-81
2021/10/07 08:11:08;;;;;;;1.50;0.80;;;13.60;99.90;;;;;;5099728;28;20179;-82
2021/10/07 08:13:33;;;;;;;0.63;0.63;;;13.80;99.90;;;;;;5098250;28;20233;-82
2021/10/07 08:15:59;;;;;;;0.97;0.73;;;13.40;99.90;;;;;;5103605;28;20176;-82
2021/10/07 08:18:25;;;;;;;0.40;0.40;;;13.10;99.90;;;;;;5101149;28;20193;-82
2021/10/07 08:20:52;;;;;;;1.13;0.37;;;13.20;99.90;;;;;;5092823;28;20192;-82
2021/10/07 08:23:22;;;;;;;0.30;0.30;;;13.30;99.90;;;;;;5109735;28;20209;-83
2021/10/07 08:25:48;;;;;;;0.73;0.73;;;13.30;99.90;;;;;;5088057;28;20230;-83
2021/10/07 08:28:13;;;;;;;0.60;0.60;;;13.00;99.90;;;;;;5090942;28;20227;-83
2021/10/07 08:30:39;;;;;;;2.27;1.23;;;12.80;99.90;;;;;;5105750;28;20176;-82
2021/10/07 08:33:05;;;;;;;0.93;0.93;;;12.60;99.90;;;;;;5099526;28;20203;-83
2021/10/07 08:35:31;;;;;;;0.40;0.40;;;12.50;99.90;;;;;;5085020;28;20195;-82
2021/10/07 08:37:57;;;;;;;2.13;0.40;;;12.50;99.90;;;;;;5104496;28;20175;-81
2021/10/07 08:40:22;;;;;;;1.17;0.60;;;12.40;99.90;;;;;;5105659;28;20186;-82
2021/10/07 08:42:48;;;;;;;0.60;0.33;;;12.60;99.90;;;;;;5104733;28;20172;-82
2021/10/07 08:45:15;;;;;;;0.63;0.63;;;12.50;99.90;;;;;;5090976;28;20218;-80
2021/10/07 08:47:45;;;;;;;1.43;0.90;;;12.30;99.90;;;;;;5095744;28;20186;-82
2021/10/07 08:50:13;;;;;;;1.63;1.20;;;12.10;99.90;;;;;;5111280;28;20201;-87
2021/10/07 08:52:39;;;;;;;9.87;1.40;;;12.10;99.90;;;;;;5094914;28;20190;-82
2021/10/07 08:55:06;;;;;;;1.07;0.97;;;12.10;99.90;;;;;;5109998;28;20202;-82
2021/10/07 08:57:32;;;;;;;3.17;1.30;;;12.00;99.90;;;;;;5098955;28;20166;-82
2021/10/07 08:59:58;;;;;;;1.67;1.57;;;12.00;99.90;;;;;;5100545;28;20202;-81
2021/10/07 09:02:29;;;;;;;1.10;1.10;;;12.00;99.90;;;;;;5104333;28;20231;-81
2021/10/07 09:05:16;;;;;;;2.33;1.10;;;12.00;99.90;;;;;;5105864;28;20197;-82
2021/10/07 09:08:02;;;;;;;2.27;1.47;;;12.20;99.90;;;;;;5096895;28;20185;-81
2021/10/07 09:10:50;;;;;;;0.97;0.97;;;12.10;99.90;;;;;;5103055;28;20607;-82
2021/10/07 09:13:25;;;;;;;1.57;1.47;;;12.20;99.90;;;;;;5112619;28;20200;-81
2021/10/07 09:15:56;;;;;;;2.07;1.83;;;12.40;99.90;;;;;;5098857;28;20284;-81
2021/10/07 09:18:24;;;;;;;3.57;1.10;;;12.40;99.90;;;;;;5081717;28;20215;-81
2021/10/07 09:20:52;;;;;;;2.73;0.80;;;12.60;99.90;;;;;;5083449;28;20175;-81
2021/10/07 09:23:29;;;;;;;1.13;0.83;;;12.80;99.90;;;;;;5084457;28;20238;-81
2021/10/07 09:26:00;;;;;;;1.10;1.03;;;12.80;99.90;;;;;;5077273;28;20252;-81
2021/10/07 09:28:28;;;;;;;1.43;1.27;;;12.80;99.90;;;;;;5083909;28;20200;-80
2021/10/07 09:30:55;;;;;;;0.90;0.90;;;13.10;99.90;;;;;;5096814;28;20152;-81
2021/10/07 09:33:38;;;;;;;0.87;0.77;;;12.80;99.90;;;;;;5102881;28;20180;-80
2021/10/07 09:36:15;;;;;;;2.50;1.13;;;13.10;99.90;;;;;;5085167;28;20173;-81
2021/10/07 09:38:41;;;;;;;1.90;1.40;;;13.50;99.90;;;;;;5073714;28;20178;-80
2021/10/07 09:41:19;;;;;;;2.00;0.60;;;13.50;99.90;;;;;;5088055;28;20172;-81
2021/10/07 09:44:05;;;;;;;1.50;0.93;;;13.70;99.90;;;;;;5089438;28;20241;-81
2021/10/07 09:46:44;;;;;;;1.17;1.13;;;13.90;99.90;;;;;;5083329;28;20211;-80
2021/10/07 09:49:17;;;;;;;0.93;0.87;;;14.40;99.90;;;;;;5074392;28;20183;-81
2021/10/07 09:51:48;;;;;;;0.83;0.83;;;14.90;99.90;;;;;;5087966;28;20235;-80
2021/10/07 09:54:19;;;;;;;0.93;0.93;;;15.10;99.90;;;;;;5074233;28;20201;-81
2021/10/07 09:56:54;;;;;;;0.93;0.67;;;15.10;99.90;;;;;;5086677;28;20180;-81
2021/10/07 09:59:20;;;;;;;0.93;0.93;;;15.20;99.90;;;;;;5086178;28;20194;-81
2021/10/07 10:01:46;;;;;;;0.70;0.70;;;14.90;99.90;;;;;;5094613;28;20181;-81
2021/10/07 10:04:11;;;;;;;1.83;1.33;;;14.90;99.90;;;;;;5089646;28;20193;-81
2021/10/07 10:06:39;;;;;;;1.43;1.10;;;14.70;99.90;;;;;;5090957;28;20200;-81
2021/10/07 10:09:05;;;;;;;1.47;1.00;;;14.60;99.90;;;;;;5083331;28;20173;-81
2021/10/07 10:11:31;;;;;;;1.17;1.03;;;14.70;99.90;;;;;;5084444;28;20189;-80
2021/10/07 10:13:57;;;;;;;0.80;0.80;;;15.20;99.90;;;;;;5097960;28;20566;-81
2021/10/07 10:16:24;;;;;;;1.10;0.60;;;15.70;99.90;;;;;;5077647;28;20205;-81
2021/10/07 10:19:04;;;;;;;0.40;0.40;;;15.90;99.90;;;;;;5076198;28;20190;-81
2021/10/07 10:21:34;;;;;;;0.70;0.70;;;16.00;99.90;;;;;;5075783;28;20186;-81
2021/10/07 10:24:03;;;;;;;0.60;0.43;;;16.30;99.90;;;;;;5084725;28;20252;-81
2021/10/07 10:26:29;;;;;;;1.43;0.77;;;16.70;99.90;;;;;;5082763;28;20211;-81
2021/10/07 10:28:55;;;;;;;0.43;0.43;;;16.90;99.90;;;;;;5078056;28;20171;-81
2021/10/07 10:31:51;;;;;;;1.60;0.50;;;17.00;99.90;;;;;;5086115;28;20698;-81
2021/10/07 10:34:19;;;;;;;0.50;0.50;;;17.00;99.90;;;;;;5067342;28;20214;-81
2021/10/07 10:36:51;;;;;;;0.77;0.77;;;16.80;99.90;;;;;;5092585;28;20210;-82
2021/10/07 10:39:24;;;;;;;0.63;0.57;;;16.00;99.90;;;;;;5078404;28;20190;-82
2021/10/07 10:41:59;;;;;;;0.30;0.30;;;16.30;99.90;;;;;;5083666;28;20181;-82
2021/10/07 10:44:27;;;;;;;0.50;0.50;;;17.10;99.90;;;;;;5083440;28;20204;-82
2021/10/07 10:47:08;;;;;;;0.20;0.20;;;17.10;99.90;;;;;;5089709;28;20321;-82
2021/10/07 10:49:46;;;;;;;0.53;0.53;;;17.00;99.90;;;;;;5091821;28;20176;-82
2021/10/07 10:52:15;;;;;;;0.40;0.40;;;16.70;99.90;;;;;;5082712;28;20282;-82
2021/10/07 10:54:44;;;;;;;1.03;0.37;;;17.10;99.90;;;;;;5082345;28;20342;-82
2021/10/07 10:57:37;;;;;;;0.40;0.33;;;17.20;99.90;;;;;;5076916;28;20323;-82
2021/10/07 11:00:13;;;;;;;0.40;0.40;;;17.10;99.90;;;;;;5085764;28;20179;-81
2021/10/07 11:02:41;;;;;;;0.50;0.50;;;17.20;99.90;;;;;;5075615;28;20184;-81
2021/10/07 11:05:16;;;;;;;0.20;0.20;;;17.40;99.90;;;;;;5086898;28;20232;-82
2021/10/07 11:07:42;;;;;;;0.40;0.40;;;17.90;99.90;;;;;;5084909;28;20655;-82
2021/10/07 11:10:29;;;;;;;0.80;0.80;;;18.50;99.90;;;;;;5085915;28;20183;-83
2021/10/07 11:12:58;;;;;;;0.90;0.90;;;18.50;99.90;;;;;;5081083;28;20175;-82
2021/10/07 11:15:27;;;;;;;0.60;0.60;;;18.00;99.90;;;;;;5088420;28;20197;-82
2021/10/07 11:17:54;;;;;;;1.83;0.63;;;18.30;99.90;;;;;;5076295;28;20183;-82
2021/10/07 11:20:29;;;;;;;0.60;0.60;;;18.60;99.90;;;;;;5082042;28;20173;-82
2021/10/07 11:23:06;;;;;;;0.50;0.43;;;18.20;99.90;;;;;;5077284;28;20181;-82
2021/10/07 11:25:33;;;;;;;0.30;0.30;;;17.20;99.90;;;;;;5078726;28;20624;-82
2021/10/07 11:27:59;;;;;;;0.60;0.60;;;17.20;99.90;;;;;;5075905;28;20279;-83
2021/10/07 11:30:26;;;;;;;0.30;0.30;;;16.80;99.90;;;;;;5077815;28;20223;-80
2021/10/07 11:32:52;;;;;;;2.40;1.27;;;16.30;99.90;;;;;;5076988;28;20198;-81
2021/10/07 11:35:20;;;;;;;0.60;0.20;;;16.20;99.90;;;;;;5080124;28;20649;-80
2021/10/07 11:38:07;;;;;;;0.20;0.20;;;15.90;99.90;;;;;;5068684;28;20184;-80
2021/10/07 11:40:43;;;;;;;0.20;0.20;;;15.70;99.90;;;;;;5077555;28;20184;-80
2021/10/07 11:43:30;;;;;;;0.60;0.40;;;15.80;99.90;;;;;;5069853;28;20191;-80
2021/10/07 11:46:01;;;;;;;0.33;0.20;;;15.70;99.90;;;;;;5074042;28;20189;-80
2021/10/07 11:48:27;;;;;;;0.30;0.30;;;15.80;99.90;;;;;;5086201;28;20222;-80
2021/10/07 11:50:54;;;;;;;0.60;0.60;;;15.90;99.90;;;;;;5086361;28;20183;-80
2021/10/07 11:53:38;;;;;;;0.53;0.50;;;15.90;99.90;;;;;;5076856;28;20183;-80
2021/10/07 11:56:10;;;;;;;0.73;0.73;;;15.50;99.90;;;;;;5084667;28;20674;-80
2021/10/07 11:58:36;;;;;;;0.37;0.37;;;15.60;99.90;;;;;;5081825;28;20183;-80
2021/10/07 12:01:02;;;;;;;0.30;0.20;;;15.80;99.90;;;;;;5086225;28;20272;-80
2021/10/07 12:03:32;;;;;;;0.70;0.67;;;15.70;99.90;;;;;;5079498;28;20242;-80
2021/10/07 12:06:03;;;;;;;0.30;0.30;;;16.00;99.90;;;;;;5071795;28;20263;-80
2021/10/07 12:08:31;;;;;;;0.77;0.50;;;16.40;99.90;;;;;;5080973;28;20206;-81
2021/10/07 12:11:10;;;;;;;0.87;0.43;;;17.10;99.90;;;;;;5094492;28;20597;-81
2021/10/07 12:13:39;;;;;;;0.90;0.30;;;17.60;99.90;;;;;;5085307;28;20248;-81
2021/10/07 12:16:25;;;;;;;0.27;0.27;;;17.60;99.90;;;;;;5082261;28;20184;-80
2021/10/07 12:18:52;;;;;;;0.47;0.47;;;17.50;99.90;;;;;;5086444;28;20191;-80
2021/10/07 12:21:23;;;;;;;0.20;0.20;;;17.40;99.90;;;;;;5088181;28;20547;-80
2021/10/07 12:24:01;;;;;;;0.20;0.20;;;17.40;99.90;;;;;;5083257;28;20190;-80
2021/10/07 12:26:37;;;;;;;0.20;0.20;;;17.20;99.90;;;;;;5072555;28;20257;-80
2021/10/07 12:29:23;;;;;;;0.43;0.43;;;17.60;99.90;;;;;;5090954;28;20202;-80
2021/10/07 12:31:50;;;;;;;0.33;0.33;;;17.90;99.90;;;;;;5085973;28;20284;-80
2021/10/07 12:34:17;;;;;;;0.20;0.20;;;18.30;99.90;;;;;;5088295;28;20200;-81
2021/10/07 12:36:49;;;;;;;0.13;0.13;;;18.70;99.90;;;;;;5091702;28;21128;-81
2021/10/07 12:39:31;;;;;;;0.10;0.10;;;19.00;99.90;;;;;;5093072;28;20220;-81
2021/10/07 12:42:01;;;;;;;0.60;0.40;;;19.10;99.90;;;;;;5088180;28;20184;-81
2021/10/07 12:44:32;;;;;;;0.30;0.30;;;18.70;99.90;;;;;;5087442;28;20211;-80
2021/10/07 12:47:00;;;;;;;0.23;0.23;;;19.00;99.90;;;;;;5091781;28;20169;-81
2021/10/07 12:49:43;;;;;;;0.57;0.57;;;18.50;99.90;;;;;;5087396;28;20184;-81
2021/10/07 12:52:25;;;;;;;0.43;0.43;;;18.10;99.90;;;;;;5090581;28;20192;-81
2021/10/07 12:55:08;;;;;;;0.30;0.30;;;18.00;99.90;;;;;;5096107;28;20204;-80